Time;durP1;ratioP1;P1;durP2;ratioP2;P2;SDS_P1;SDS_P2;PMS_P1;PMS_P2;Temp;Humidity;BMP_temperature;BMP_pressure;BME280_temperature;BME280_humidity;BME280_pressure;Samples;Min_cycle;Max_cycle;Signal;HPM_P1;HPM_P2
2021/01/14 00:00:25;;;;;;;7.53;2.07;;;28.50;83.10;;;;;;4993617;28;20170;-72
2021/01/14 00:02:52;;;;;;;5.93;1.50;;;28.40;83.10;;;;;;4992099;28;20180;-71
2021/01/14 00:05:20;;;;;;;8.17;1.60;;;28.70;82.90;;;;;;4993593;28;20173;-72
2021/01/14 00:07:49;;;;;;;9.13;1.97;;;28.90;82.70;;;;;;4986652;28;20245;-70
2021/01/14 00:10:17;;;;;;;10.07;2.30;;;29.10;81.80;;;;;;4986127;28;20261;-70
2021/01/14 00:12:44;;;;;;;5.67;1.50;;;29.10;81.30;;;;;;4992988;28;20539;-70
2021/01/14 00:15:14;;;;;;;5.93;1.63;;;29.30;81.10;;;;;;4993382;28;20624;-71
2021/01/14 00:17:41;;;;;;;5.20;1.80;;;29.40;81.10;;;;;;4992477;28;20210;-71
2021/01/14 00:20:11;;;;;;;9.00;2.03;;;29.50;80.10;;;;;;4992333;28;20206;-69
2021/01/14 00:22:39;;;;;;;10.93;2.43;;;29.50;80.10;;;;;;4991722;28;20192;-71
2021/01/14 00:25:08;;;;;;;8.43;1.83;;;29.30;81.10;;;;;;4993363;28;20232;-70
2021/01/14 00:27:35;;;;;;;12.10;2.27;;;29.50;80.70;;;;;;4988954;28;20182;-70
2021/01/14 00:30:08;;;;;;;5.50;1.67;;;29.80;80.40;;;;;;4984199;28;20225;-71
2021/01/14 00:32:35;;;;;;;8.53;1.73;;;30.00;78.80;;;;;;4983346;28;20185;-70
2021/01/14 00:35:03;;;;;;;11.77;1.80;;;30.20;78.10;;;;;;4988544;28;20210;-70
2021/01/14 00:40:31;;;;;;;7.32;2.03;;;30.30;76.80;;;;;;4991596;28;20200;-71
2021/01/14 00:43:03;;;;;;;10.85;2.75;;;30.50;76.30;;;;;;4979317;28;20276;-72
2021/01/14 00:45:32;;;;;;;5.13;1.67;;;30.70;76.70;;;;;;4988084;28;20182;-69
2021/01/14 00:48:00;;;;;;;10.70;3.00;;;30.80;76.00;;;;;;4984939;28;20274;-70
2021/01/14 00:50:29;;;;;;;8.43;2.30;;;30.90;76.80;;;;;;4979737;28;20185;-69
2021/01/14 00:52:56;;;;;;;10.55;2.30;;;30.90;76.90;;;;;;4984512;28;20559;-71
2021/01/14 00:55:24;;;;;;;9.32;2.88;;;31.10;77.10;;;;;;4987476;28;20256;-69
2021/01/14 00:57:53;;;;;;;9.88;2.45;;;31.10;77.00;;;;;;4990584;28;20226;-71
2021/01/14 01:00:23;;;;;;;11.35;2.10;;;31.20;77.30;;;;;;4991400;28;20774;-72
2021/01/14 01:02:51;;;;;;;9.50;2.30;;;31.20;77.20;;;;;;4991203;28;20273;-71
2021/01/14 01:05:21;;;;;;;16.42;2.75;;;31.00;77.10;;;;;;4987037;28;20232;-70
2021/01/14 01:07:59;;;;;;;7.65;2.05;;;31.10;76.70;;;;;;4984653;28;20648;-69
2021/01/14 01:10:27;;;;;;;12.95;2.78;;;31.10;77.10;;;;;;4992116;28;20540;-71
2021/01/14 01:12:56;;;;;;;12.00;2.95;;;31.20;76.90;;;;;;4989342;28;20186;-70
2021/01/14 01:15:28;;;;;;;8.38;2.40;;;31.40;77.80;;;;;;4992968;28;20186;-70
2021/01/14 01:17:55;;;;;;;8.32;2.00;;;31.60;76.10;;;;;;4989490;28;20206;-68
2021/01/14 01:20:22;;;;;;;11.60;2.73;;;31.30;77.10;;;;;;4985448;28;20212;-68
2021/01/14 01:22:50;;;;;;;11.35;2.58;;;31.40;76.60;;;;;;4996009;28;20178;-69
2021/01/14 01:25:17;;;;;;;16.10;3.42;;;31.60;76.40;;;;;;4991099;28;20645;-69
2021/01/14 01:27:44;;;;;;;13.50;3.03;;;31.90;75.60;;;;;;4993019;28;20190;-70
2021/01/14 01:30:13;;;;;;;12.25;2.97;;;32.00;75.20;;;;;;4996030;28;20218;-68
2021/01/14 01:32:42;;;;;;;12.90;2.85;;;31.90;75.20;;;;;;4995201;28;20178;-70
2021/01/14 01:35:10;;;;;;;16.98;3.45;;;32.10;74.30;;;;;;4996126;28;20218;-69
2021/01/14 01:37:38;;;;;;;7.85;2.88;;;32.10;74.30;;;;;;4989887;28;20221;-70
2021/01/14 01:40:06;;;;;;;13.48;3.25;;;32.10;74.10;;;;;;4982805;28;20618;-70
2021/01/14 01:42:33;;;;;;;15.63;2.28;;;32.00;74.20;;;;;;4995723;28;20177;-70
2021/01/14 01:45:00;;;;;;;13.05;3.08;;;32.30;73.60;;;;;;4987453;28;20174;-69
2021/01/14 01:47:33;;;;;;;6.97;2.53;;;32.30;74.20;;;;;;4994863;28;20186;-71
2021/01/14 01:50:04;;;;;;;14.23;2.88;;;32.60;73.70;;;;;;4994527;28;20192;-69
2021/01/14 01:52:34;;;;;;;8.60;2.47;;;32.50;73.80;;;;;;4996170;28;20676;-71
2021/01/14 01:55:03;;;;;;;11.77;2.72;;;32.20;73.40;;;;;;4994923;28;20265;-69
2021/01/14 01:57:31;;;;;;;15.82;7.97;;;32.30;74.20;;;;;;4996089;28;20213;-69
2021/01/14 01:59:59;;;;;;;18.10;5.05;;;32.60;73.90;;;;;;4995738;28;20218;-70
2021/01/14 02:02:29;;;;;;;8.98;2.75;;;32.80;73.20;;;;;;4995630;28;20213;-69
2021/01/14 02:04:57;;;;;;;12.43;3.17;;;32.90;72.60;;;;;;4995336;28;20181;-67
2021/01/14 02:07:57;;;;;;;12.43;2.80;;;32.80;71.30;;;;;;4993802;28;20189;-70
2021/01/14 02:10:37;;;;;;;9.38;2.53;;;32.90;72.10;;;;;;4991516;28;20680;-71
2021/01/14 02:13:46;;;;;;;15.00;3.00;;;33.00;71.90;;;;;;4994047;28;20189;-69
2021/01/14 02:16:14;;;;;;;13.55;2.72;;;33.20;71.30;;;;;;4992369;28;20652;-69
2021/01/14 02:18:43;;;;;;;8.68;2.83;;;33.20;71.20;;;;;;4990063;28;20559;-71
2021/01/14 02:21:14;;;;;;;13.52;2.95;;;33.20;70.70;;;;;;4974480;28;20178;-69
2021/01/14 02:24:09;;;;;;;7.80;2.80;;;33.20;70.50;;;;;;4989826;28;20259;-71
2021/01/14 02:26:40;;;;;;;10.27;2.80;;;33.10;70.30;;;;;;4995170;28;20232;-71
2021/01/14 02:29:07;;;;;;;10.82;2.97;;;33.30;70.20;;;;;;4996164;28;20246;-72
2021/01/14 02:31:35;;;;;;;7.72;2.97;;;33.40;70.30;;;;;;4995264;28;20177;-71
2021/01/14 02:34:02;;;;;;;11.93;3.17;;;33.30;70.50;;;;;;4994048;28;20543;-71
2021/01/14 02:36:30;;;;;;;6.93;2.60;;;33.30;70.50;;;;;;4995929;28;20193;-72
2021/01/14 02:38:57;;;;;;;7.32;2.47;;;33.20;70.30;;;;;;4995387;28;20228;-70
2021/01/14 02:41:25;;;;;;;12.85;2.53;;;33.20;70.40;;;;;;4993588;28;20182;-70
2021/01/14 02:43:52;;;;;;;6.32;2.22;;;33.40;70.60;;;;;;4987585;28;20796;-70
2021/01/14 02:46:21;;;;;;;8.90;2.75;;;33.50;69.60;;;;;;4994503;28;20557;-70
2021/01/14 02:49:01;;;;;;;11.77;3.28;;;33.40;70.50;;;;;;4993953;28;20200;-71
2021/01/14 02:51:48;;;;;;;9.55;2.75;;;33.50;69.70;;;;;;4995456;28;20181;-70
2021/01/14 02:54:16;;;;;;;8.70;2.80;;;33.50;69.90;;;;;;4995162;28;20703;-69
2021/01/14 02:56:49;;;;;;;8.55;2.58;;;33.40;69.60;;;;;;4994454;28;20233;-71
2021/01/14 02:59:17;;;;;;;10.07;2.55;;;33.30;70.50;;;;;;4994674;28;20182;-69
2021/01/14 03:01:45;;;;;;;14.80;2.40;;;33.30;70.50;;;;;;4994531;28;20262;-71
2021/01/14 03:04:12;;;;;;;8.38;2.33;;;33.30;70.00;;;;;;4994882;28;20178;-68
2021/01/14 03:06:40;;;;;;;10.18;2.50;;;33.50;69.90;;;;;;4994698;28;20670;-72
2021/01/14 03:09:07;;;;;;;10.35;2.45;;;33.70;70.00;;;;;;4993589;28;20550;-72
2021/01/14 03:11:36;;;;;;;7.45;2.10;;;33.90;68.90;;;;;;4995063;28;20707;-71
2021/01/14 03:14:03;;;;;;;6.78;2.10;;;33.60;69.30;;;;;;4994700;28;20189;-71
2021/01/14 03:16:38;;;;;;;7.05;1.90;;;33.70;69.30;;;;;;4993276;28;20273;-70
2021/01/14 03:19:05;;;;;;;9.30;2.38;;;33.80;69.30;;;;;;4994768;28;20265;-73
2021/01/14 03:21:33;;;;;;;9.15;2.10;;;33.70;68.80;;;;;;4994644;28;20178;-69
2021/01/14 03:24:00;;;;;;;7.47;2.30;;;33.70;69.40;;;;;;4994952;28;20201;-73
2021/01/14 03:26:28;;;;;;;12.32;2.90;;;33.80;69.10;;;;;;4994601;28;20206;-71
2021/01/14 03:28:55;;;;;;;10.90;2.40;;;33.70;69.40;;;;;;4994291;28;20228;-69
2021/01/14 03:31:23;;;;;;;9.05;1.98;;;33.90;69.20;;;;;;4986812;28;20606;-69
2021/01/14 03:33:50;;;;;;;13.93;3.05;;;33.70;68.60;;;;;;4992914;28;20186;-70
2021/01/14 03:36:19;;;;;;;5.35;2.15;;;33.90;69.60;;;;;;4993802;28;20185;-68
2021/01/14 03:38:47;;;;;;;10.02;2.58;;;33.80;68.30;;;;;;4993738;28;20300;-68
2021/01/14 03:41:19;;;;;;;10.70;2.15;;;33.80;68.60;;;;;;4994065;28;20186;-69
2021/01/14 03:43:47;;;;;;;11.48;2.83;;;33.80;69.50;;;;;;4993881;28;20675;-67
2021/01/14 03:46:16;;;;;;;10.88;2.72;;;33.60;68.80;;;;;;4993584;28;20261;-67
2021/01/14 03:48:46;;;;;;;17.50;2.50;;;33.50;68.90;;;;;;4994220;28;20182;-70
2021/01/14 03:51:16;;;;;;;9.25;2.50;;;33.30;69.50;;;;;;4994492;28;20562;-70
2021/01/14 03:53:43;;;;;;;9.77;2.47;;;33.20;69.10;;;;;;4989106;28;20204;-70
2021/01/14 03:56:11;;;;;;;10.55;2.38;;;33.40;69.30;;;;;;4990855;28;20221;-70
2021/01/14 03:58:38;;;;;;;10.48;2.47;;;33.70;69.00;;;;;;4984901;28;20269;-70
2021/01/14 04:01:06;;;;;;;11.80;2.55;;;34.20;67.30;;;;;;4989487;28;20200;-70
2021/01/14 04:03:34;;;;;;;9.43;2.72;;;34.40;65.80;;;;;;4994116;28;20205;-68
2021/01/14 04:06:01;;;;;;;4.68;1.85;;;34.00;66.70;;;;;;4992651;28;20802;-67
2021/01/14 04:08:28;;;;;;;10.55;1.88;;;34.00;67.10;;;;;;4982565;28;20671;-68
2021/01/14 04:10:56;;;;;;;10.95;3.97;;;34.40;66.60;;;;;;4993403;28;20190;-67
2021/01/14 04:13:23;;;;;;;10.70;3.08;;;34.80;64.90;;;;;;4993661;28;20184;-68
2021/01/14 04:15:50;;;;;;;8.60;1.83;;;34.70;64.60;;;;;;4991996;28;20240;-67
2021/01/14 04:18:18;;;;;;;10.93;2.03;;;34.20;65.70;;;;;;4992709;28;20268;-68
2021/01/14 04:20:45;;;;;;;10.82;2.13;;;34.20;66.00;;;;;;4993598;28;20174;-67
2021/01/14 04:23:12;;;;;;;7.97;1.85;;;34.20;64.50;;;;;;4993391;28;20216;-68
2021/01/14 04:25:40;;;;;;;4.90;1.90;;;34.30;65.50;;;;;;4993613;28;20166;-66
2021/01/14 04:28:07;;;;;;;10.35;2.15;;;34.20;65.10;;;;;;4991957;28;20182;-68
2021/01/14 04:30:36;;;;;;;7.95;1.83;;;34.50;64.70;;;;;;4987781;28;20212;-67
2021/01/14 04:33:13;;;;;;;10.38;1.60;;;34.40;64.70;;;;;;4992942;28;20181;-68
2021/01/14 04:36:00;;;;;;;6.53;1.80;;;34.20;64.70;;;;;;4987687;28;20189;-68
2021/01/14 04:38:29;;;;;;;8.40;2.13;;;34.20;65.20;;;;;;4985188;28;20619;-67
2021/01/14 04:41:01;;;;;;;6.85;2.20;;;34.30;64.70;;;;;;4977132;28;20185;-66
2021/01/14 04:43:31;;;;;;;13.38;3.78;;;34.40;63.60;;;;;;4975918;28;20244;-67
2021/01/14 04:46:08;;;;;;;6.93;2.47;;;34.20;64.00;;;;;;4985109;28;20186;-66
2021/01/14 04:48:44;;;;;;;7.20;1.80;;;34.20;64.20;;;;;;4988669;28;20185;-72
2021/01/14 04:51:19;;;;;;;10.60;1.80;;;34.20;64.40;;;;;;4989059;28;20174;-68
2021/01/14 04:53:50;;;;;;;8.23;2.25;;;33.90;64.40;;;;;;4982429;28;20204;-68
2021/01/14 04:56:19;;;;;;;10.27;1.60;;;33.70;64.00;;;;;;4988586;28;20637;-69
2021/01/14 04:58:50;;;;;;;6.90;2.00;;;33.90;64.20;;;;;;4986251;28;20636;-67
2021/01/14 05:01:25;;;;;;;9.00;1.98;;;34.30;63.30;;;;;;4988875;28;20196;-69
2021/01/14 05:03:54;;;;;;;12.75;2.60;;;34.20;63.40;;;;;;4993460;28;20195;-68
2021/01/14 05:06:23;;;;;;;6.47;1.90;;;34.60;63.30;;;;;;4994949;28;20587;-68
2021/01/14 05:08:56;;;;;;;5.93;1.75;;;34.30;62.70;;;;;;4991782;28;20182;-69
2021/01/14 05:11:28;;;;;;;8.50;2.13;;;34.30;63.10;;;;;;4995308;28;20194;-67
2021/01/14 05:13:56;;;;;;;6.60;1.90;;;34.80;63.10;;;;;;4994928;28;20178;-68
2021/01/14 05:16:23;;;;;;;10.80;2.95;;;34.90;61.30;;;;;;4997407;28;20255;-68
2021/01/14 05:18:50;;;;;;;6.00;2.22;;;34.80;60.70;;;;;;4994516;28;20221;-67
2021/01/14 05:21:18;;;;;;;10.13;2.85;;;34.10;62.00;;;;;;4989975;28;20264;-70
2021/01/14 05:23:45;;;;;;;11.25;2.05;;;33.20;63.90;;;;;;4995079;28;20182;-68
2021/01/14 05:26:29;;;;;;;9.27;2.10;;;32.90;65.20;;;;;;4992802;28;20214;-67
2021/01/14 05:28:56;;;;;;;9.13;2.17;;;33.70;64.40;;;;;;4991259;28;20220;-67
2021/01/14 05:31:26;;;;;;;12.60;2.15;;;34.80;62.60;;;;;;4989887;28;20181;-69
2021/01/14 05:33:59;;;;;;;9.80;1.83;;;34.90;60.80;;;;;;4988735;28;20679;-68
2021/01/14 05:36:27;;;;;;;9.98;1.90;;;34.80;60.90;;;;;;4989214;28;20633;-68
2021/01/14 05:38:58;;;;;;;10.90;2.35;;;34.60;61.50;;;;;;4995153;28;20278;-67
2021/01/14 05:41:31;;;;;;;11.70;1.83;;;33.70;62.80;;;;;;4984439;28;20260;-69
2021/01/14 05:44:04;;;;;;;7.80;2.20;;;33.00;65.10;;;;;;4994539;28;20648;-67
2021/01/14 05:46:33;;;;;;;9.35;2.03;;;32.80;65.80;;;;;;4992076;28;20273;-67
2021/01/14 05:49:03;;;;;;;8.88;2.05;;;32.50;66.50;;;;;;4991515;28;20555;-67
2021/01/14 05:51:34;;;;;;;12.45;2.38;;;32.30;66.90;;;;;;4990116;28;20183;-70
2021/01/14 05:54:09;;;;;;;10.57;2.85;;;32.00;67.80;;;;;;4992609;28;20210;-68
2021/01/14 05:56:58;;;;;;;16.52;4.50;;;31.60;69.30;;;;;;4988369;28;20218;-66
2021/01/14 05:59:34;;;;;;;8.15;2.30;;;31.20;69.80;;;;;;4993657;28;20198;-67
2021/01/14 06:02:02;;;;;;;10.60;1.88;;;31.50;69.70;;;;;;4991225;28;20182;-69
2021/01/14 06:04:31;;;;;;;7.43;1.75;;;32.50;67.30;;;;;;4991127;28;20575;-68
2021/01/14 06:07:04;;;;;;;6.43;2.28;;;33.60;63.70;;;;;;4987116;28;20237;-68
2021/01/14 06:09:42;;;;;;;11.32;2.15;;;34.00;63.20;;;;;;4981867;28;20265;-68
2021/01/14 06:12:11;;;;;;;10.32;2.03;;;34.20;62.40;;;;;;4988887;28;20188;-67
2021/01/14 06:14:40;;;;;;;9.10;2.03;;;34.30;61.70;;;;;;4980124;28;20198;-68
2021/01/14 06:17:14;;;;;;;13.90;3.85;;;34.00;62.10;;;;;;4982760;28;20561;-70
2021/01/14 06:19:41;;;;;;;12.63;3.05;;;34.60;61.40;;;;;;4981263;28;20191;-69
2021/01/14 06:22:15;;;;;;;10.05;2.35;;;34.60;60.70;;;;;;4991815;28;20178;-67
2021/01/14 06:24:44;;;;;;;9.93;2.28;;;34.20;61.80;;;;;;4982772;28;20588;-69
2021/01/14 06:27:12;;;;;;;6.90;1.58;;;34.00;62.20;;;;;;4986323;28;20194;-70
2021/01/14 06:29:46;;;;;;;6.88;1.90;;;34.10;62.40;;;;;;4984599;28;20221;-68
2021/01/14 06:32:18;;;;;;;9.15;1.65;;;34.50;61.50;;;;;;4983950;28;20566;-69
2021/01/14 06:34:51;;;;;;;8.85;2.10;;;34.40;61.40;;;;;;4990575;28;20186;-69
2021/01/14 06:37:25;;;;;;;13.00;2.22;;;34.40;61.30;;;;;;4979380;28;20210;-67
2021/01/14 06:39:53;;;;;;;11.85;2.20;;;34.30;61.80;;;;;;4987806;28;20225;-68
2021/01/14 06:42:28;;;;;;;9.30;2.10;;;34.00;62.60;;;;;;4988752;28;20693;-68
2021/01/14 06:44:57;;;;;;;9.25;2.15;;;34.20;62.30;;;;;;4985452;28;20296;-70
2021/01/14 06:47:35;;;;;;;11.90;2.40;;;34.50;62.10;;;;;;4986774;28;20182;-69
2021/01/14 06:50:23;;;;;;;11.30;2.13;;;34.60;61.40;;;;;;4992323;28;20536;-69
2021/01/14 06:53:02;;;;;;;14.88;3.35;;;33.90;62.40;;;;;;4986806;28;20186;-67
2021/01/14 06:55:36;;;;;;;12.07;2.80;;;32.90;64.20;;;;;;4988045;28;20224;-67
2021/01/14 06:58:15;;;;;;;8.60;2.20;;;32.20;66.20;;;;;;4984529;28;20839;-67
2021/01/14 07:00:46;;;;;;;6.35;2.00;;;31.80;67.00;;;;;;4988518;28;20185;-70
2021/01/14 07:03:14;;;;;;;9.00;1.75;;;31.70;66.10;;;;;;4992894;28;20178;-67
2021/01/14 07:05:53;;;;;;;6.60;1.90;;;31.60;66.50;;;;;;4988068;28;20182;-69
2021/01/14 07:08:42;;;;;;;6.05;2.20;;;31.40;65.90;;;;;;4991320;28;20203;-68
2021/01/14 07:11:17;;;;;;;14.38;3.83;;;31.40;65.70;;;;;;4991893;28;20899;-68
2021/01/14 07:13:50;;;;;;;21.45;12.35;;;32.30;63.50;;;;;;4987115;28;20224;-68
2021/01/14 07:16:19;;;;;;;11.18;3.15;;;33.00;61.50;;;;;;4980635;28;20178;-67
2021/01/14 07:18:47;;;;;;;9.70;2.35;;;33.80;59.70;;;;;;4981208;28;20672;-68
2021/01/14 07:21:36;;;;;;;7.65;1.90;;;34.80;57.50;;;;;;4984980;28;20226;-67
2021/01/14 07:24:19;;;;;;;9.43;2.50;;;35.00;58.80;;;;;;4989836;28;20189;-65
2021/01/14 07:27:08;;;;;;;8.07;2.05;;;34.50;60.30;;;;;;4990072;28;20192;-66
2021/01/14 07:29:43;;;;;;;13.68;2.90;;;34.00;60.60;;;;;;4974758;28;20179;-67
2021/01/14 07:32:11;;;;;;;11.20;3.05;;;33.00;66.20;;;;;;4992335;28;20173;-67
2021/01/14 07:34:45;;;;;;;31.85;5.85;;;32.00;69.60;;;;;;4991701;28;20181;-68
2021/01/14 07:37:15;;;;;;;27.13;5.18;;;30.50;76.60;;;;;;4986004;28;20241;-67
2021/01/14 07:39:56;;;;;;;35.57;6.47;;;29.30;81.20;;;;;;4988767;28;20554;-67
2021/01/14 07:42:34;;;;;;;40.00;6.70;;;28.70;84.70;;;;;;4993624;28;20250;-66
2021/01/14 07:45:23;;;;;;;29.23;6.90;;;28.40;86.80;;;;;;4974352;28;20182;-67
2021/01/14 07:47:50;;;;;;;35.50;9.00;;;28.10;88.90;;;;;;4990059;28;20178;-67
2021/01/14 07:50:25;;;;;;;52.87;9.50;;;27.60;90.10;;;;;;4994028;28;20177;-66
2021/01/14 07:52:54;;;;;;;39.87;9.23;;;27.20;91.20;;;;;;4992399;28;20177;-65
2021/01/14 07:55:26;;;;;;;51.90;10.17;;;27.00;91.50;;;;;;4993794;28;20221;-66
2021/01/14 07:58:03;;;;;;;46.37;9.93;;;26.50;91.80;;;;;;4992477;28;20573;-65
2021/01/14 08:00:31;;;;;;;57.43;10.93;;;26.20;92.60;;;;;;4974455;28;20177;-68
2021/01/14 08:03:11;;;;;;;52.00;12.07;;;25.90;93.10;;;;;;4985623;28;20186;-68
2021/01/14 08:05:40;;;;;;;36.57;10.57;;;25.80;93.40;;;;;;4993563;28;20182;-66
2021/01/14 08:08:36;;;;;;;56.03;12.00;;;25.60;93.70;;;;;;4991167;28;20554;-67
2021/01/14 08:11:20;;;;;;;60.77;11.97;;;25.20;94.70;;;;;;4976606;28;20194;-68
2021/01/14 08:14:07;;;;;;;56.07;13.03;;;25.00;95.40;;;;;;4991646;28;20537;-66
2021/01/14 08:16:42;;;;;;;63.67;12.37;;;25.00;95.50;;;;;;4988338;28;20182;-69
2021/01/14 08:19:12;;;;;;;55.70;12.40;;;24.80;95.60;;;;;;4993259;28;20276;-67
2021/01/14 08:21:39;;;;;;;49.03;12.33;;;24.80;95.60;;;;;;4980897;28;20186;-68
2021/01/14 08:24:07;;;;;;;55.23;12.50;;;24.90;95.50;;;;;;4984996;28;20666;-65
2021/01/14 08:26:54;;;;;;;69.07;13.73;;;24.80;95.60;;;;;;4988290;28;20185;-67
2021/01/14 08:29:50;;;;;;;53.43;12.60;;;25.00;95.40;;;;;;4991300;28;20178;-66
2021/01/14 08:32:30;;;;;;;62.60;13.33;;;24.90;95.50;;;;;;4991209;28;20300;-67
2021/01/14 08:35:03;;;;;;;56.83;12.97;;;24.70;95.70;;;;;;4989042;28;20239;-67
2021/01/14 08:37:36;;;;;;;49.30;11.50;;;24.50;96.00;;;;;;4992942;28;20221;-68
2021/01/14 08:40:27;;;;;;;57.60;12.20;;;24.50;96.00;;;;;;4992855;28;20189;-69
2021/01/14 08:43:13;;;;;;;59.90;13.27;;;24.50;96.10;;;;;;4992107;28;20182;-68
2021/01/14 08:45:48;;;;;;;62.93;13.17;;;24.50;96.10;;;;;;4991643;28;20674;-67
2021/01/14 08:48:26;;;;;;;63.67;14.73;;;24.50;96.90;;;;;;4985321;28;20186;-68
2021/01/14 08:50:58;;;;;;;59.90;12.63;;;24.30;99.50;;;;;;4992173;28;20720;-68
2021/01/14 08:53:35;;;;;;;63.53;13.80;;;23.90;99.60;;;;;;4989303;28;20190;-68
2021/01/14 08:56:07;;;;;;;51.60;12.87;;;23.80;99.90;;;;;;4991828;28;20299;-68
2021/01/14 08:58:48;;;;;;;59.30;13.10;;;23.70;99.70;;;;;;4990566;28;20209;-69
2021/01/14 09:01:24;;;;;;;62.63;13.50;;;23.60;99.90;;;;;;4992002;28;20530;-68
2021/01/14 09:03:54;;;;;;;58.67;14.73;;;23.60;99.60;;;;;;4987325;28;20273;-67
2021/01/14 09:06:48;;;;;;;59.33;14.20;;;23.40;99.80;;;;;;4988571;28;20190;-67
2021/01/14 09:09:16;;;;;;;51.40;11.47;;;23.40;99.50;;;;;;4991690;28;20277;-67
2021/01/14 09:11:45;;;;;;;56.93;13.10;;;23.20;99.50;;;;;;4992796;28;20205;-68
2021/01/14 09:14:14;;;;;;;49.83;12.90;;;23.20;99.70;;;;;;4986003;28;20183;-67
2021/01/14 09:16:47;;;;;;;65.10;13.17;;;23.10;99.80;;;;;;4990321;28;20194;-65
2021/01/14 09:19:25;;;;;;;62.43;12.13;;;23.10;99.50;;;;;;4993303;28;20221;-67
2021/01/14 09:21:52;;;;;;;56.63;12.13;;;23.10;99.50;;;;;;4987554;28;20656;-68
2021/01/14 09:24:20;;;;;;;48.03;11.53;;;23.10;99.50;;;;;;4992746;28;20189;-67
2021/01/14 09:26:51;;;;;;;54.57;11.47;;;23.10;99.20;;;;;;4992444;28;20568;-67
2021/01/14 09:29:21;;;;;;;48.97;11.97;;;23.10;99.30;;;;;;4983957;28;20190;-67
2021/01/14 09:31:48;;;;;;;55.07;12.87;;;23.10;99.10;;;;;;4992075;28;20182;-66
2021/01/14 09:34:15;;;;;;;52.43;11.17;;;23.10;99.20;;;;;;4986599;28;20177;-66
2021/01/14 09:36:43;;;;;;;57.77;11.70;;;23.00;99.00;;;;;;4985087;28;20178;-71
2021/01/14 09:39:16;;;;;;;48.43;11.50;;;23.00;99.00;;;;;;4992853;28;20190;-69
2021/01/14 09:41:44;;;;;;;54.50;11.57;;;23.00;99.10;;;;;;4993006;28;20237;-72
2021/01/14 09:44:16;;;;;;;46.70;11.43;;;23.00;99.10;;;;;;4987660;28;20190;-70
2021/01/14 09:46:46;;;;;;;49.83;12.57;;;23.00;98.90;;;;;;4994091;28;20178;-70
2021/01/14 09:49:19;;;;;;;53.77;13.50;;;23.00;98.60;;;;;;4996839;28;20189;-68
2021/01/14 09:51:47;;;;;;;54.67;12.03;;;22.90;98.80;;;;;;4993377;28;20190;-68
2021/01/14 09:54:15;;;;;;;51.80;11.20;;;22.90;98.90;;;;;;4982281;28;20660;-68
2021/01/14 09:56:50;;;;;;;56.63;11.83;;;22.90;98.70;;;;;;4991098;28;20233;-71
2021/01/14 09:59:43;;;;;;;52.53;11.43;;;22.90;98.80;;;;;;4995303;28;20188;-68
2021/01/14 10:02:31;;;;;;;49.40;9.77;;;22.90;98.70;;;;;;4995052;28;20174;-68
2021/01/14 10:05:01;;;;;;;59.80;12.40;;;22.90;98.50;;;;;;4994168;28;20281;-68
2021/01/14 10:07:33;;;;;;;56.90;10.40;;;22.80;98.60;;;;;;4994842;28;20186;-68
2021/01/14 10:10:01;;;;;;;54.43;13.23;;;22.80;98.70;;;;;;4996209;28;20182;-68
2021/01/14 10:12:32;;;;;;;50.47;11.67;;;22.70;98.80;;;;;;4994619;28;20186;-67
2021/01/14 10:15:15;;;;;;;52.63;10.83;;;22.80;98.80;;;;;;4993498;28;20190;-69
2021/01/14 10:17:45;;;;;;;47.77;11.30;;;22.80;98.70;;;;;;4991054;28;20210;-68
2021/01/14 10:20:14;;;;;;;44.63;9.83;;;22.80;98.60;;;;;;5003567;28;20644;-69
2021/01/14 10:22:52;;;;;;;46.33;10.73;;;22.80;98.60;;;;;;4990126;28;20186;-69
2021/01/14 10:25:21;;;;;;;42.47;10.10;;;22.90;98.40;;;;;;4992157;28;20186;-68
2021/01/14 10:28:07;;;;;;;37.53;8.90;;;22.80;98.50;;;;;;4995692;28;20188;-69
2021/01/14 10:30:40;;;;;;;41.97;10.20;;;22.80;98.60;;;;;;4990205;28;20256;-68
2021/01/14 10:33:08;;;;;;;51.00;10.30;;;22.80;98.70;;;;;;4995417;28;20189;-68
2021/01/14 10:35:36;;;;;;;42.90;10.10;;;22.80;98.60;;;;;;4995630;28;20543;-68
2021/01/14 10:38:13;;;;;;;52.00;10.20;;;22.80;98.50;;;;;;4986904;28;20222;-68
2021/01/14 10:40:45;;;;;;;41.97;9.30;;;22.80;98.60;;;;;;4995395;28;20190;-69
2021/01/14 10:43:17;;;;;;;44.10;9.67;;;22.80;98.60;;;;;;4992538;28;20186;-69
2021/01/14 10:45:44;;;;;;;51.90;11.93;;;22.80;98.60;;;;;;4994134;28;20185;-69
2021/01/14 10:48:17;;;;;;;60.77;14.17;;;22.70;98.80;;;;;;4986388;28;20189;-71
2021/01/14 10:50:53;;;;;;;48.57;9.77;;;22.70;98.80;;;;;;4984764;28;20260;-70
2021/01/14 10:53:32;;;;;;;46.77;10.20;;;22.60;98.70;;;;;;4985778;28;20242;-68
2021/01/14 10:56:19;;;;;;;46.37;9.23;;;22.60;98.80;;;;;;4987328;28;20226;-68
2021/01/14 10:59:01;;;;;;;45.47;10.47;;;22.60;98.80;;;;;;4993083;28;20229;-67
2021/01/14 11:01:30;;;;;;;40.40;9.40;;;22.60;98.90;;;;;;4987894;28;20197;-68
2021/01/14 11:04:07;;;;;;;53.07;9.53;;;22.70;98.60;;;;;;5001511;28;20201;-70
2021/01/14 11:06:37;;;;;;;42.53;8.67;;;22.70;98.50;;;;;;4995101;28;20189;-70
2021/01/14 11:09:11;;;;;;;49.27;10.07;;;22.80;98.50;;;;;;4989402;28;20217;-70
2021/01/14 11:11:38;;;;;;;47.97;9.87;;;22.80;98.50;;;;;;4985262;28;20299;-67
2021/01/14 11:14:06;;;;;;;50.23;11.07;;;22.80;98.40;;;;;;4993627;28;20178;-67
2021/01/14 11:16:33;;;;;;;46.57;9.43;;;22.80;98.40;;;;;;5002380;28;20268;-69
2021/01/14 11:19:03;;;;;;;50.87;9.63;;;22.80;98.40;;;;;;4994954;28;20224;-67
2021/01/14 11:21:34;;;;;;;43.77;10.43;;;22.80;98.40;;;;;;4994828;28;20174;-69
2021/01/14 11:24:03;;;;;;;46.73;9.17;;;22.80;98.40;;;;;;4995206;28;20539;-67
2021/01/14 11:26:30;;;;;;;48.77;9.37;;;22.80;98.40;;;;;;4994317;28;20586;-67
2021/01/14 11:28:58;;;;;;;45.30;9.03;;;22.80;98.40;;;;;;4992293;28;20186;-66
2021/01/14 11:31:27;;;;;;;39.47;8.67;;;22.70;98.30;;;;;;4984043;28;20194;-68
2021/01/14 11:33:54;;;;;;;42.23;9.17;;;22.60;98.40;;;;;;4986742;28;20182;-70
2021/01/14 11:36:23;;;;;;;45.13;9.53;;;22.60;98.40;;;;;;4992478;28;20186;-68
2021/01/14 11:38:51;;;;;;;38.70;8.47;;;22.60;98.50;;;;;;4983422;28;20687;-68
2021/01/14 11:41:25;;;;;;;42.60;7.17;;;22.60;98.50;;;;;;4992368;28;20252;-67
2021/01/14 11:43:52;;;;;;;37.43;8.43;;;22.50;98.30;;;;;;4983690;28;20186;-67
2021/01/14 11:46:24;;;;;;;36.07;8.00;;;22.50;98.50;;;;;;4986768;28;20322;-67
2021/01/14 11:48:52;;;;;;;43.77;8.83;;;22.50;98.40;;;;;;4990282;28;20183;-66
2021/01/14 11:51:20;;;;;;;38.00;8.50;;;22.50;98.50;;;;;;4988060;28;20224;-67
2021/01/14 11:53:47;;;;;;;46.73;8.27;;;22.50;98.50;;;;;;4994397;28;20189;-68
2021/01/14 11:56:18;;;;;;;34.37;8.73;;;22.50;98.50;;;;;;4994106;28;20230;-65
2021/01/14 11:58:45;;;;;;;44.47;8.17;;;22.50;98.50;;;;;;4987563;28;20293;-67
2021/01/14 12:01:13;;;;;;;43.33;8.67;;;22.50;98.30;;;;;;4994249;28;20196;-66
2021/01/14 12:03:41;;;;;;;41.73;7.50;;;22.50;98.30;;;;;;4994077;28;20190;-68
2021/01/14 12:06:09;;;;;;;47.80;8.83;;;22.50;98.20;;;;;;4990686;28;20539;-67
2021/01/14 12:08:36;;;;;;;43.10;8.57;;;22.50;98.30;;;;;;4987788;28;20309;-68
2021/01/14 12:11:04;;;;;;;35.83;7.50;;;22.50;98.30;;;;;;4993923;28;20212;-68
2021/01/14 12:13:31;;;;;;;42.47;8.47;;;22.40;98.20;;;;;;4990911;28;20222;-68
2021/01/14 12:15:58;;;;;;;38.40;7.87;;;22.40;98.20;;;;;;4977187;28;20656;-66
2021/01/14 12:18:26;;;;;;;45.80;7.30;;;22.40;98.30;;;;;;4986665;28;20276;-67
2021/01/14 12:20:53;;;;;;;45.83;7.63;;;22.40;98.10;;;;;;4984286;28;21041;-66
2021/01/14 12:23:21;;;;;;;53.53;8.60;;;22.40;98.20;;;;;;4989170;28;20190;-68
2021/01/14 12:25:48;;;;;;;33.00;6.83;;;22.30;98.20;;;;;;4991754;28;20188;-66
2021/01/14 12:28:15;;;;;;;49.33;7.83;;;22.30;98.10;;;;;;4988118;28;20201;-66
2021/01/14 12:30:43;;;;;;;37.13;7.80;;;22.30;98.30;;;;;;4985077;28;20178;-67
2021/01/14 12:33:10;;;;;;;34.83;8.00;;;22.30;98.30;;;;;;4993755;28;20185;-67
2021/01/14 12:35:37;;;;;;;41.60;7.07;;;22.30;98.40;;;;;;4996511;28;20279;-68
2021/01/14 12:38:06;;;;;;;49.67;7.10;;;22.20;98.20;;;;;;4993151;28;20206;-67
2021/01/14 12:40:34;;;;;;;38.97;6.43;;;22.30;98.20;;;;;;4993579;28;20552;-72
2021/01/14 12:43:01;;;;;;;32.60;7.00;;;22.30;98.10;;;;;;4992652;28;20192;-70
2021/01/14 12:45:28;;;;;;;38.60;8.30;;;22.20;98.10;;;;;;4991646;28;20629;-69
2021/01/14 12:47:55;;;;;;;42.13;6.90;;;22.20;98.20;;;;;;4989745;28;20611;-70
2021/01/14 12:50:23;;;;;;;36.00;7.00;;;22.20;98.10;;;;;;4990422;28;20644;-70
2021/01/14 12:52:50;;;;;;;35.73;6.90;;;22.20;98.20;;;;;;4989503;28;20189;-70
2021/01/14 12:55:18;;;;;;;40.53;6.87;;;22.20;98.10;;;;;;4992014;28;20378;-70
2021/01/14 12:57:46;;;;;;;38.53;6.77;;;22.20;98.10;;;;;;4986930;28;20299;-70
2021/01/14 13:00:14;;;;;;;42.63;8.17;;;22.10;98.20;;;;;;4992913;28;20190;-67
2021/01/14 13:02:44;;;;;;;45.87;7.23;;;22.10;98.30;;;;;;4992931;28;20179;-67